Jump to content
  • Member Statistics

    17,172
    Total Members
    7,904
    Most Online
    Michael Butler
    Newest Member
    Michael Butler
    Joined

OBS-NOWCAST for Periods of mostly light snow 10PM today- 10AM Friday 12/24/21- first measurable NYC with 1-3" Catskills to CT


wdrag
 Share

Recommended Posts

wdrag nailed this!  
 

Special Weather Statement
National Weather Service New York NY
326 AM EST Fri Dec 24 2021

CTZ005>012-NJZ002-004-006-103>108-NYZ067>075-078>081-176>179-
241400-
Northern Fairfield-Northern New Haven-Northern Middlesex-
Northern New London-Southern Fairfield-Southern New Haven-
Southern Middlesex-Southern New London-Western Passaic-
Eastern Passaic-Hudson-Western Bergen-Eastern Bergen-
Western Essex-Eastern Essex-Western Union-Eastern Union-Orange-
Putnam-Rockland-Northern Westchester-Southern Westchester-
New York (Manhattan)-Bronx-Richmond (Staten Island)-
Kings (Brooklyn)-Northwest Suffolk-Northeast Suffolk-
Southwest Suffolk-Southeast Suffolk-Northern Queens-
Northern Nassau-Southern Queens-Southern Nassau-
326 AM EST Fri Dec 24 2021

Light snow is beginning to fall across the region and should
continue through day break. A light coating of accumulation is
expected on area roadways, especially secondaries and untreated
roads. Temperatures are also below freezing which could create
slick spots where snow may have initially melted. Use extra
caution if traveling early this morning as slippery conditions
are expected.
  • Like 5
Link to comment
Share on other sites

Regional Weather Roundup
National Weather Service New York NY
400 AM EST FRI DEC 24 2021

Note: "FAIR" indicates few or no clouds below 12,000 feet with no
significant weather and/or obstructions to visibility.

NYZ071-072-176-178-NJZ106-104-241000-
New York City Metro Area

CITY           SKY/WX    TMP DP  RH WIND       PRES   REMARKS
Central Park   FLURRIES  30  27  88 CALM      30.14F
World Trd Ctr  NOT AVBL
Bronx Lehman C   N/A     32  30  93 SE5         N/A  WCI  27
LaGuardia Arpt FLURRIES  31  26  82 SE7       30.12F WCI  24
Queens College   N/A     32  30  93 SE7         N/A  WCI  26
Kennedy Intl   LGT SNOW  30  27  86 SE7       30.14F FOG     WCI  23
Breezy Point     N/A     34 N/A N/A E5          N/A  WCI  30
Brooklyn Coll    N/A     32  28  86 E6          N/A  WCI  26
Staten Island    N/A     32  28  86 E3          N/A
Newark/Liberty FLURRIES  33  27  78 SE3       30.13F
Teterboro      LGT SNOW  30  25  81 S3        30.12F
$$
  • Like 1
Link to comment
Share on other sites

38 minutes ago, WeatherFox said:
Regional Weather Roundup
National Weather Service New York NY
400 AM EST FRI DEC 24 2021

Note: "FAIR" indicates few or no clouds below 12,000 feet with no
significant weather and/or obstructions to visibility.

NYZ071-072-176-178-NJZ106-104-241000-
New York City Metro Area

CITY           SKY/WX    TMP DP  RH WIND       PRES   REMARKS
Central Park   FLURRIES  30  27  88 CALM      30.14F
World Trd Ctr  NOT AVBL
Bronx Lehman C   N/A     32  30  93 SE5         N/A  WCI  27
LaGuardia Arpt FLURRIES  31  26  82 SE7       30.12F WCI  24
Queens College   N/A     32  30  93 SE7         N/A  WCI  26
Kennedy Intl   LGT SNOW  30  27  86 SE7       30.14F FOG     WCI  23
Breezy Point     N/A     34 N/A N/A E5          N/A  WCI  30
Brooklyn Coll    N/A     32  28  86 E6          N/A  WCI  26
Staten Island    N/A     32  28  86 E3          N/A
Newark/Liberty FLURRIES  33  27  78 SE3       30.13F
Teterboro      LGT SNOW  30  25  81 S3        30.12F
$$

says light snow at JFK but I didnt see anything here

 

Link to comment
Share on other sites

Wantage 1.0"  25F. Beautiful morning.  CP had to measure had 1/4S+ and .03 melted with a temp 31-32.

 

KNYC 240951Z AUTO VRB04KT 8SM OVC055 M01/M03 A3012 RMK AO2 SNE0852 SLP192 P0000 T10061028
KNYC 240851Z AUTO 00000KT 6SM -SN BR SCT011 BKN049 OVC075 M01/M03 A3014 RMK AO2 SLP198 P0003 60003 T10111028 58014
KNYC 240847Z AUTO 15004KT 4SM -SN BR FEW011 BKN045 OVC075 M01/M03 A3014 RMK AO2 P0003
KNYC 240834Z AUTO VRB04KT 2SM -SN BR FEW009 OVC031 M01/M03 A3015 RMK AO2 P0003 T10111028
KNYC 240832Z AUTO VRB03KT 1 3/4SM -SN BR OVC029 M01/M03 A3015 RMK AO2 P0003 T10111028
KNYC 240823Z AUTO VRB04KT 1/2SM -SN FZFG FEW008 OVC015 M01/M03 A3015 RMK AO2 P0003 T10111028
KNYC 240807Z AUTO VRB03KT 1/2SM SN FZFG VV014 M01/M03 A3017 RMK AO2 P0002 T10111033
KNYC 240758Z AUTO VRB05KT 1/4SM +SN VV018 M01/M04 A3018 RMK AO2 P0001 T10061044
KNYC 240751Z AUTO 16006KT 1 1/2SM -SN OVC027 01/M06 A3018 RMK AO2 VIS 1/2V5 SNB47 SLP214 P0000 T00061056
KNYC 240651Z AUTO 13003KT 10SM SCT065 OVC085 02/M08 A3018 RMK AO2 SLP213 T00171083

  • Like 4
Link to comment
Share on other sites

20 minutes ago, wdrag said:

Wantage 1.0"  25F. Beautiful morning.  CP had to measure had 1/4S+ and .03 melted with a temp 31-32.

 

KNYC 240951Z AUTO VRB04KT 8SM OVC055 M01/M03 A3012 RMK AO2 SNE0852 SLP192 P0000 T10061028
KNYC 240851Z AUTO 00000KT 6SM -SN BR SCT011 BKN049 OVC075 M01/M03 A3014 RMK AO2 SLP198 P0003 60003 T10111028 58014
KNYC 240847Z AUTO 15004KT 4SM -SN BR FEW011 BKN045 OVC075 M01/M03 A3014 RMK AO2 P0003
KNYC 240834Z AUTO VRB04KT 2SM -SN BR FEW009 OVC031 M01/M03 A3015 RMK AO2 P0003 T10111028
KNYC 240832Z AUTO VRB03KT 1 3/4SM -SN BR OVC029 M01/M03 A3015 RMK AO2 P0003 T10111028
KNYC 240823Z AUTO VRB04KT 1/2SM -SN FZFG FEW008 OVC015 M01/M03 A3015 RMK AO2 P0003 T10111028
KNYC 240807Z AUTO VRB03KT 1/2SM SN FZFG VV014 M01/M03 A3017 RMK AO2 P0002 T10111033
KNYC 240758Z AUTO VRB05KT 1/4SM +SN VV018 M01/M04 A3018 RMK AO2 P0001 T10061044
KNYC 240751Z AUTO 16006KT 1 1/2SM -SN OVC027 01/M06 A3018 RMK AO2 VIS 1/2V5 SNB47 SLP214 P0000 T00061056
KNYC 240651Z AUTO 13003KT 10SM SCT065 OVC085 02/M08 A3018 RMK AO2 SLP213 T00171083

I didn't see any snowflakes but apparently it fell because all rooftops here are white as well as cartops and trees!  I guess this is what happens when it snows in the middle of the night, you don't actually see it fall  but you see the "ground truth" haha.  First measurable for the city and local airports?

Link to comment
Share on other sites

Add on as you wish: posted nw suburbs. I may not be able to post again til Christmas morning but will try to get a CoCoRahs summary of snowfall posted around 10A??? May or may not have time.

From what I've seen, generally near an inch nw NJ and se NYS.  Saw a 1.4" Rockaway NJ.  

  • Like 1
Link to comment
Share on other sites

Create an account or sign in to comment

You need to be a member in order to leave a comment

Create an account

Sign up for a new account in our community. It's easy!

Register a new account

Sign in

Already have an account? Sign in here.

Sign In Now
 Share

  • Recently Browsing   0 members

    No registered users viewing this page.

×
×
  • Create New...